Midway, West Virginia
Current Conditions -  °F | °C
As of 6:51 AM on Monday 22 Dec 2014 (Local Time) from KBKW Reporting Station
Overcast Overcast  
Wind Chill: 28°   Ceiling: 3800
Heat Index: 35°   Visibility: 10mi
Dew Point: 30°   Wind: 9mph
Humidity: 82%   Direction: 130°SE
Pressure: 30.06"   Gusts: NA
Location:  37.71°N, 81.23°W
Report Text: KBKW 221151Z AUTO 13008KT 10SM BKN038 OVC065 02/M01 A3006 RMK AO2 SLP201 T00171011 10022 20017 56004 $
Loading
Personal Weather Stations






























Interactive Weather Map New forecast layout! Learn more

10-Day Weather Forecast

Advertisements
Track Severe Weather on mobile